Time;durP1;ratioP1;P1;durP2;ratioP2;P2;SDS_P1;SDS_P2;PMS_P1;PMS_P2;Temp;Humidity;BMP_temperature;BMP_pressure;BME280_temperature;BME280_humidity;BME280_pressure;Samples;Min_cycle;Max_cycle;Signal;HPM_P1;HPM_P2
2022/12/17 13:08:21;;;;;;;103.03;59.97;;;0.20;99.90;;;;;;5034462;28;20048;-75
2022/12/17 13:10:47;;;;;;;109.90;61.27;;;0.10;99.90;;;;;;5049040;28;20490;-74
2022/12/17 13:13:29;;;;;;;110.87;59.43;;;0.10;99.90;;;;;;5049608;28;20495;-75
2022/12/17 13:16:17;;;;;;;104.05;58.35;;;0.10;99.90;;;;;;5050226;28;20376;-74
2022/12/17 13:18:42;;;;;;;116.73;58.43;;;0.10;99.90;;;;;;5042900;28;20051;-74
2022/12/17 13:21:14;;;;;;;103.77;56.80;;;0.10;99.90;;;;;;5050187;28;20057;-74
2022/12/17 13:23:40;;;;;;;109.17;58.93;;;0.00;99.90;;;;;;5049057;28;20045;-75
2022/12/17 13:26:17;;;;;;;111.00;59.00;;;0.00;99.90;;;;;;5048831;28;20048;-79
2022/12/17 13:28:54;;;;;;;111.77;58.90;;;0.10;99.90;;;;;;5044462;28;20063;-74
2022/12/17 13:31:25;;;;;;;112.70;59.97;;;0.10;99.90;;;;;;5049066;28;20713;-75
2022/12/17 13:34:04;;;;;;;105.10;57.45;;;0.20;99.90;;;;;;5049443;28;20060;-74
2022/12/17 13:36:30;;;;;;;112.77;63.10;;;0.10;99.90;;;;;;5035669;28;20077;-76
2022/12/17 13:39:04;;;;;;;112.83;59.50;;;0.10;99.90;;;;;;5048313;28;20103;-75
2022/12/17 13:41:32;;;;;;;111.70;60.03;;;0.10;99.90;;;;;;5049617;28;20494;-75
2022/12/17 13:44:16;;;;;;;104.67;57.97;;;0.00;99.90;;;;;;5048929;28;20438;-75
2022/12/17 13:46:45;;;;;;;104.83;59.37;;;0.00;99.90;;;;;;5036499;28;20080;-76
2022/12/17 13:49:30;;;;;;;110.83;59.40;;;0.00;99.90;;;;;;5048264;28;20077;-75
2022/12/17 13:52:17;;;;;;;121.50;75.03;;;0.00;99.90;;;;;;5048980;28;20056;-74
2022/12/17 13:54:43;;;;;;;118.27;66.47;;;-0.10;99.90;;;;;;5047964;28;20059;-74
2022/12/17 13:57:14;;;;;;;112.23;62.17;;;-0.10;99.90;;;;;;5031039;28;20144;-75
2022/12/17 13:59:47;;;;;;;117.13;63.92;;;-0.20;99.90;;;;;;5048720;28;20405;-75
2022/12/17 14:02:35;;;;;;;122.70;64.73;;;-0.20;99.90;;;;;;5048637;28;20053;-75
2022/12/17 14:05:03;;;;;;;123.33;65.83;;;-0.30;99.90;;;;;;5049721;28;20430;-74
2022/12/17 14:07:32;;;;;;;120.57;65.67;;;-0.30;99.90;;;;;;5031859;28;20127;-75
2022/12/17 14:09:58;;;;;;;115.33;60.13;;;-0.30;99.90;;;;;;5036346;28;20053;-74
2022/12/17 14:12:26;;;;;;;119.30;62.20;;;-0.40;99.90;;;;;;5048607;28;20052;-78
2022/12/17 14:15:03;;;;;;;126.17;65.53;;;-0.40;99.90;;;;;;5049419;28;20487;-75
2022/12/17 14:17:36;;;;;;;122.40;65.93;;;-0.40;99.90;;;;;;5032568;28;20041;-75
2022/12/17 14:20:06;;;;;;;123.13;66.17;;;-0.40;99.90;;;;;;5049141;28;20060;-75
2022/12/17 14:22:39;;;;;;;122.13;62.30;;;-0.50;99.90;;;;;;5044378;28;20040;-74
2022/12/17 14:25:14;;;;;;;127.27;66.97;;;-0.50;99.90;;;;;;5049056;28;20060;-75
2022/12/17 14:28:10;;;;;;;133.67;66.53;;;-0.60;99.90;;;;;;5032818;28;20053;-74
2022/12/17 14:30:39;;;;;;;131.97;67.23;;;-0.60;99.90;;;;;;5048558;28;20049;-75
2022/12/17 14:33:27;;;;;;;129.13;65.20;;;-0.70;99.90;;;;;;5048264;28;20414;-75
2022/12/17 14:35:54;;;;;;;128.77;62.47;;;-0.70;99.90;;;;;;5048913;28;20045;-74
2022/12/17 14:38:20;;;;;;;130.20;66.20;;;-0.70;99.90;;;;;;5033895;28;20053;-74
2022/12/17 14:40:46;;;;;;;128.57;65.53;;;-0.70;99.90;;;;;;5048356;28;20581;-74
2022/12/17 14:43:13;;;;;;;137.33;65.93;;;-0.80;99.90;;;;;;5048780;28;20099;-75
2022/12/17 14:51:30;;;;;;;134.63;65.53;;;-0.90;99.90;;;;;;5048851;28;20411;-75
2022/12/17 14:54:16;;;;;;;128.10;64.10;;;-1.00;99.90;;;;;;5048383;28;20557;-75
2022/12/17 14:56:42;;;;;;;133.50;69.57;;;-0.90;99.90;;;;;;5033503;28;20512;-74
2022/12/17 14:59:31;;;;;;;134.07;65.97;;;-1.10;99.90;;;;;;5047472;28;20091;-74
2022/12/17 15:02:16;;;;;;;144.00;69.27;;;-1.10;99.90;;;;;;5049099;28;20049;-74
2022/12/17 15:04:42;;;;;;;144.73;70.77;;;-1.20;99.90;;;;;;5030378;28;20071;-74
2022/12/17 15:07:14;;;;;;;144.43;72.33;;;-1.20;99.90;;;;;;5031221;28;20077;-74
2022/12/17 15:09:40;;;;;;;146.77;69.57;;;-1.30;99.90;;;;;;5049539;28;20036;-75
2022/12/17 15:12:06;;;;;;;149.23;68.77;;;-1.40;99.90;;;;;;5051296;28;20080;-74
2022/12/17 15:14:32;;;;;;;153.20;75.23;;;-1.40;99.90;;;;;;5052644;28;20137;-75
2022/12/17 15:16:59;;;;;;;148.07;72.40;;;-1.40;99.90;;;;;;5036945;28;20458;-76
2022/12/17 15:19:25;;;;;;;137.20;63.77;;;-1.40;99.90;;;;;;5051074;28;20059;-75
2022/12/17 15:21:51;;;;;;;148.23;71.87;;;-1.40;99.90;;;;;;5051772;28;20057;-75
2022/12/17 15:24:19;;;;;;;143.03;67.07;;;-1.50;99.90;;;;;;5050852;28;20112;-75
2022/12/17 15:26:45;;;;;;;148.87;70.50;;;-1.50;99.90;;;;;;5036501;28;20514;-74
2022/12/17 15:29:11;;;;;;;140.30;68.90;;;-1.50;99.90;;;;;;5051411;28;20048;-75
2022/12/17 15:31:37;;;;;;;153.30;70.23;;;-1.50;99.90;;;;;;5051780;28;20136;-73
2022/12/17 15:34:03;;;;;;;144.70;63.00;;;-1.60;99.90;;;;;;5050995;28;20474;-75
2022/12/17 15:36:33;;;;;;;148.40;67.27;;;-1.70;99.90;;;;;;5033719;28;20496;-73
2022/12/17 15:38:58;;;;;;;147.37;67.10;;;-1.70;99.90;;;;;;5049988;28;20482;-73
2022/12/17 15:44:08;;;;;;;149.23;69.13;;;-1.70;99.90;;;;;;5048746;28;20548;-76
2022/12/17 15:46:34;;;;;;;154.30;68.43;;;-1.70;99.90;;;;;;5036871;28;20123;-76
2022/12/17 15:49:00;;;;;;;153.20;67.70;;;-1.80;99.90;;;;;;5048641;28;20045;-74
2022/12/17 15:51:26;;;;;;;164.60;73.40;;;-1.50;99.90;;;;;;5049957;28;20037;-75
2022/12/17 15:53:51;;;;;;;160.20;69.70;;;-1.90;99.90;;;;;;5047503;28;20526;-74
2022/12/17 15:56:23;;;;;;;161.87;70.00;;;-1.90;99.90;;;;;;5043580;28;20554;-76
2022/12/17 15:58:49;;;;;;;162.90;67.95;;;-2.00;99.90;;;;;;5047221;28;20098;-75
2022/12/17 16:01:15;;;;;;;170.70;73.03;;;-2.00;99.90;;;;;;5050380;28;20132;-77
2022/12/17 16:03:41;;;;;;;166.63;72.13;;;-2.10;99.90;;;;;;5064357;28;20048;-74
2022/12/17 16:06:07;;;;;;;167.60;70.87;;;-2.00;99.90;;;;;;5066574;28;20064;-77
2022/12/17 16:08:32;;;;;;;165.37;68.53;;;-2.10;99.90;;;;;;5061657;28;20048;-76
2022/12/17 16:10:58;;;;;;;159.40;68.57;;;-1.90;99.90;;;;;;5032673;28;20139;-74
2022/12/17 16:13:24;;;;;;;157.70;66.30;;;-2.10;99.90;;;;;;5035758;28;20152;-74
2022/12/17 16:15:56;;;;;;;171.17;71.80;;;-2.20;99.90;;;;;;5048864;28;20118;-75
2022/12/17 16:18:22;;;;;;;161.40;69.30;;;-2.20;99.90;;;;;;5029962;28;20605;-76
2022/12/17 16:20:49;;;;;;;166.20;76.80;;;-2.20;99.90;;;;;;5047397;28;20395;-75
2022/12/17 16:23:15;;;;;;;162.87;73.53;;;-2.20;99.90;;;;;;5031815;28;20045;-75
2022/12/17 16:25:40;;;;;;;156.50;65.33;;;-2.20;99.90;;;;;;5029699;28;20053;-75
2022/12/17 16:28:06;;;;;;;168.23;67.63;;;-2.10;99.90;;;;;;5008613;28;20084;-75
2022/12/17 16:30:32;;;;;;;170.27;71.53;;;-2.30;99.90;;;;;;5007862;28;20045;-75
2022/12/17 16:32:58;;;;;;;169.80;68.57;;;-2.30;99.90;;;;;;5013665;28;20507;-75
2022/12/17 16:35:24;;;;;;;176.37;66.97;;;-2.30;99.90;;;;;;5026960;28;20513;-76
2022/12/17 16:37:50;;;;;;;186.33;77.07;;;-1.80;99.90;;;;;;5011250;28;20046;-74
2022/12/17 16:40:15;;;;;;;171.33;70.50;;;-2.30;99.90;;;;;;5026070;28;20049;-75
2022/12/17 16:42:41;;;;;;;173.93;70.03;;;-2.40;99.90;;;;;;5026933;28;21106;-74
2022/12/17 16:45:07;;;;;;;172.57;68.17;;;-2.40;99.90;;;;;;5035522;28;20758;-74
2022/12/17 16:47:33;;;;;;;178.00;68.97;;;-2.40;99.90;;;;;;5011724;28;20048;-75
2022/12/17 16:49:59;;;;;;;173.33;74.50;;;-2.50;99.90;;;;;;5029457;28;20054;-75
2022/12/17 16:52:24;;;;;;;183.90;75.10;;;-2.40;99.90;;;;;;5039084;28;20044;-74
2022/12/17 16:54:50;;;;;;;183.67;77.20;;;-2.50;99.90;;;;;;5047823;28;20053;-75
2022/12/17 16:57:16;;;;;;;174.87;71.10;;;-2.50;99.90;;;;;;5031172;28;20107;-75
2022/12/17 16:59:41;;;;;;;184.57;72.63;;;-2.50;99.90;;;;;;5045286;28;20454;-74
2022/12/17 17:02:14;;;;;;;174.73;68.73;;;-2.50;99.90;;;;;;5043936;28;20052;-75
2022/12/17 17:04:40;;;;;;;163.30;65.33;;;-2.60;99.90;;;;;;5047830;28;20113;-77
2022/12/17 17:07:06;;;;;;;166.37;64.33;;;-2.60;99.90;;;;;;5030811;28;20057;-75
2022/12/17 17:09:31;;;;;;;173.17;66.40;;;-2.60;99.90;;;;;;5047722;28;20044;-75
2022/12/17 17:11:57;;;;;;;184.10;73.00;;;-2.60;99.90;;;;;;5033181;28;20096;-75
2022/12/17 17:14:26;;;;;;;175.73;69.97;;;-2.70;99.90;;;;;;5024338;28;20053;-75
2022/12/17 17:16:52;;;;;;;184.20;70.17;;;-2.70;99.90;;;;;;5012730;28;20044;-78
2022/12/17 17:19:18;;;;;;;184.87;71.43;;;-2.70;99.90;;;;;;5028216;28;20053;-75
2022/12/17 17:21:52;;;;;;;188.77;74.50;;;-2.70;99.90;;;;;;5026190;28;20107;-76
2022/12/17 17:24:21;;;;;;;198.13;72.00;;;-2.70;99.90;;;;;;5026949;28;20045;-76
2022/12/17 17:26:47;;;;;;;195.43;71.97;;;-2.80;99.90;;;;;;5024291;28;20053;-75
2022/12/17 17:29:13;;;;;;;205.50;76.57;;;-2.80;99.90;;;;;;5043292;28;20043;-76
2022/12/17 17:31:39;;;;;;;213.97;75.27;;;-2.80;99.90;;;;;;5031056;28;20049;-76
2022/12/17 17:34:10;;;;;;;197.50;75.37;;;-2.90;99.90;;;;;;5045267;28;20084;-74
2022/12/17 17:36:36;;;;;;;187.75;68.93;;;-2.80;99.90;;;;;;5032675;28;21008;-75
2022/12/17 17:39:02;;;;;;;206.30;77.40;;;-2.90;99.90;;;;;;5027124;28;20139;-76
2022/12/17 17:41:29;;;;;;;208.40;76.40;;;-2.90;99.90;;;;;;5046606;28;20064;-74
2022/12/17 17:44:00;;;;;;;212.03;76.23;;;-2.90;99.90;;;;;;5044371;28;20059;-75
2022/12/17 17:46:28;;;;;;;218.10;83.70;;;-3.00;99.90;;;;;;5020291;28;20510;-74
2022/12/17 17:48:56;;;;;;;230.13;79.30;;;-2.90;99.90;;;;;;5040064;28;20086;-78
2022/12/17 17:51:25;;;;;;;221.30;80.00;;;-2.90;99.90;;;;;;5036107;28;20053;-75
2022/12/17 17:53:52;;;;;;;216.87;75.83;;;-2.50;99.90;;;;;;5043738;28;20060;-76
2022/12/17 17:56:21;;;;;;;218.60;78.57;;;-2.20;99.90;;;;;;5017760;28;20061;-74
2022/12/17 17:58:49;;;;;;;215.50;77.23;;;-3.00;99.90;;;;;;5040960;28;20533;-75
2022/12/17 18:01:18;;;;;;;220.57;77.87;;;-3.00;99.90;;;;;;5044625;28;20057;-75
2022/12/17 18:03:44;;;;;;;215.83;76.73;;;-3.10;99.90;;;;;;5045485;28;20130;-75
2022/12/17 18:06:12;;;;;;;211.97;78.90;;;-3.10;99.90;;;;;;5038331;28;20078;-76
2022/12/17 18:08:39;;;;;;;208.93;76.57;;;-3.00;99.90;;;;;;5035533;28;20057;-75
2022/12/17 18:11:07;;;;;;;207.33;77.97;;;-3.00;99.90;;;;;;5025458;28;20061;-74
2022/12/17 18:16:17;;;;;;;208.67;71.33;;;-3.00;99.90;;;;;;5016080;28;20096;-74
2022/12/17 18:18:44;;;;;;;207.97;74.03;;;-3.10;99.90;;;;;;5022532;28;20041;-76
2022/12/17 18:21:14;;;;;;;208.00;71.73;;;-3.10;99.90;;;;;;5023835;28;20065;-77
2022/12/17 18:23:40;;;;;;;212.17;75.00;;;-3.20;99.90;;;;;;5027699;28;20045;-75
2022/12/17 18:26:11;;;;;;;209.43;76.73;;;-3.10;99.90;;;;;;5005856;28;20140;-80
2022/12/17 18:28:38;;;;;;;208.33;78.07;;;-3.20;99.90;;;;;;5033146;28;20099;-74
2022/12/17 18:31:16;;;;;;;212.93;75.47;;;-3.20;99.90;;;;;;5041736;28;20124;-74
2022/12/17 18:33:45;;;;;;;222.23;79.03;;;-3.20;99.90;;;;;;5045890;28;20107;-77
2022/12/17 18:36:17;;;;;;;209.20;73.33;;;-3.20;99.90;;;;;;5036411;28;20041;-77
2022/12/17 18:38:42;;;;;;;205.02;72.68;;;-3.20;99.90;;;;;;5040441;28;20400;-77
2022/12/17 18:44:03;;;;;;;205.37;70.77;;;-3.20;99.90;;;;;;5046188;28;20041;-78
2022/12/17 18:46:29;;;;;;;205.53;73.20;;;-3.10;99.90;;;;;;5038049;28;20102;-78
2022/12/17 18:49:00;;;;;;;186.73;70.27;;;-3.10;99.90;;;;;;5030797;28;20558;-74
2022/12/17 18:51:26;;;;;;;198.60;67.07;;;-3.20;99.90;;;;;;5027166;28;20115;-77
2022/12/17 18:53:56;;;;;;;192.53;68.80;;;-3.30;99.90;;;;;;5026970;28;20412;-75
2022/12/17 18:56:22;;;;;;;193.43;69.27;;;-3.30;99.90;;;;;;5018410;28;20057;-77
2022/12/17 18:58:50;;;;;;;198.87;72.47;;;-3.40;99.90;;;;;;5024521;28;20518;-75
2022/12/17 19:01:31;;;;;;;194.87;71.23;;;-3.40;99.90;;;;;;5029884;28;20048;-75
2022/12/17 19:04:00;;;;;;;179.65;61.28;;;-3.40;99.90;;;;;;5033918;28;20494;-74
2022/12/17 19:06:25;;;;;;;210.17;76.43;;;-3.40;99.90;;;;;;5022199;28;20598;-76
2022/12/17 19:08:51;;;;;;;206.93;73.87;;;-3.40;99.90;;;;;;5006248;28;20053;-74
2022/12/17 19:11:21;;;;;;;212.20;76.07;;;-3.40;99.90;;;;;;5029906;28;20140;-75
2022/12/17 19:13:48;;;;;;;194.33;70.70;;;-3.40;99.90;;;;;;5027729;28;20057;-76
2022/12/17 19:16:17;;;;;;;207.43;73.87;;;-3.40;99.90;;;;;;5010477;28;20041;-81
2022/12/17 19:18:43;;;;;;;205.50;71.00;;;-3.40;99.90;;;;;;5020658;28;20155;-74
2022/12/17 19:21:13;;;;;;;211.23;74.23;;;-3.40;99.90;;;;;;5028654;28;20049;-76
2022/12/17 19:23:39;;;;;;;214.17;70.63;;;-3.40;99.90;;;;;;5014750;28;20295;-76
2022/12/17 19:26:19;;;;;;;216.17;73.90;;;-3.50;99.90;;;;;;5044123;28;20067;-81
2022/12/17 19:28:49;;;;;;;219.70;72.73;;;-3.50;99.90;;;;;;5039330;28;20390;-74
2022/12/17 19:31:17;;;;;;;209.70;70.90;;;-3.40;99.90;;;;;;5027038;28;20160;-77
2022/12/17 19:33:44;;;;;;;224.10;72.30;;;-3.50;99.90;;;;;;5027781;28;20041;-76
2022/12/17 19:36:18;;;;;;;241.13;93.20;;;-3.50;99.90;;;;;;5023188;28;20101;-82
2022/12/17 19:38:44;;;;;;;208.63;72.93;;;-3.60;99.90;;;;;;5022475;28;20045;-75
2022/12/17 19:41:15;;;;;;;209.23;69.70;;;-3.60;99.90;;;;;;5027834;28;20045;-77
2022/12/17 19:43:41;;;;;;;206.32;69.75;;;-3.60;99.90;;;;;;5023770;28;20399;-77
2022/12/17 19:46:10;;;;;;;211.43;73.23;;;-3.60;99.90;;;;;;5004399;28;20549;-81
2022/12/17 19:48:37;;;;;;;218.00;78.83;;;-3.60;99.90;;;;;;5016930;28;20065;-75
2022/12/17 19:51:04;;;;;;;231.50;81.33;;;-3.60;99.90;;;;;;5027285;28;20100;-75
2022/12/17 19:53:32;;;;;;;243.37;88.83;;;-3.60;99.90;;;;;;5025921;28;20072;-75
2022/12/17 19:56:24;;;;;;;228.47;81.30;;;-3.60;99.90;;;;;;5027992;28;20057;-76
2022/12/17 19:58:52;;;;;;;257.70;96.10;;;-3.60;99.90;;;;;;5006451;28;20049;-75
2022/12/17 20:01:21;;;;;;;222.80;81.37;;;-3.50;99.90;;;;;;5026769;28;20430;-75
2022/12/17 20:03:47;;;;;;;215.03;78.97;;;-3.60;99.90;;;;;;5013298;28;20053;-76
2022/12/17 20:06:15;;;;;;;218.97;76.27;;;-3.60;99.90;;;;;;5030731;28;20045;-76
2022/12/17 20:08:41;;;;;;;227.53;79.40;;;-3.60;99.90;;;;;;5041362;28;20076;-77
2022/12/17 20:14:13;;;;;;;214.73;80.10;;;-3.60;99.90;;;;;;5047330;28;20418;-75
2022/12/17 20:16:50;;;;;;;220.87;77.03;;;-3.60;99.90;;;;;;5031157;28;20605;-74
2022/12/17 20:19:22;;;;;;;216.33;78.43;;;-3.60;99.90;;;;;;5046143;28;20090;-74
2022/12/17 20:21:48;;;;;;;;;;;-3.50;99.90;;;;;;5031259;28;20125;-75
2022/12/17 20:24:14;;;;;;;222.80;77.83;;;-3.60;99.90;;;;;;5047279;28;19925;-74
2022/12/17 20:26:40;;;;;;;211.80;78.70;;;-3.60;99.90;;;;;;5029574;28;20464;-79
2022/12/17 20:29:07;;;;;;;221.00;76.13;;;-3.60;99.90;;;;;;5007251;28;20148;-77
2022/12/17 20:31:33;;;;;;;200.93;76.93;;;-3.60;99.90;;;;;;5041364;28;20056;-75
2022/12/17 20:34:00;;;;;;;206.30;76.13;;;-3.60;99.90;;;;;;5029467;28;20616;-74
2022/12/17 20:36:26;;;;;;;203.87;77.13;;;-3.60;99.90;;;;;;5035020;28;20094;-78
2022/12/17 20:38:52;;;;;;;195.03;74.93;;;-3.60;99.90;;;;;;5043584;28;20060;-75
2022/12/17 20:41:23;;;;;;;186.63;69.40;;;-3.60;99.90;;;;;;5048348;28;20489;-75
2022/12/17 20:43:49;;;;;;;197.90;74.53;;;-3.70;99.90;;;;;;5045852;28;20040;-74
2022/12/17 20:46:15;;;;;;;180.07;70.13;;;-3.70;99.90;;;;;;5026279;28;20094;-75
2022/12/17 20:48:42;;;;;;;186.90;70.27;;;-3.70;99.90;;;;;;5039961;28;20045;-74
2022/12/17 20:51:19;;;;;;;186.00;67.50;;;-3.70;99.90;;;;;;5046702;28;20499;-78
2022/12/17 20:53:49;;;;;;;193.67;76.73;;;-3.70;99.90;;;;;;5046158;28;20517;-77
2022/12/17 20:56:19;;;;;;;180.43;71.67;;;-3.70;99.90;;;;;;5037510;28;20569;-77
2022/12/17 20:58:45;;;;;;;188.13;68.23;;;-3.70;99.90;;;;;;5042599;28;20319;-76
2022/12/17 21:01:17;;;;;;;191.30;71.20;;;-3.70;99.90;;;;;;5029823;28;20051;-75
2022/12/17 21:03:43;;;;;;;200.60;71.93;;;-3.80;99.90;;;;;;5045176;28;20084;-76
2022/12/17 21:06:15;;;;;;;180.83;66.97;;;-3.80;99.90;;;;;;5041951;28;20375;-75
2022/12/17 21:08:43;;;;;;;181.33;68.10;;;-3.80;99.90;;;;;;5039035;28;20045;-76
2022/12/17 21:11:09;;;;;;;179.27;68.70;;;-3.80;99.90;;;;;;5047707;28;20403;-75
2022/12/17 21:13:35;;;;;;;199.33;72.13;;;-3.80;99.90;;;;;;5045972;28;20073;-77
2022/12/17 21:16:04;;;;;;;190.57;70.03;;;-3.80;99.90;;;;;;5047311;28;20717;-75
2022/12/17 21:18:31;;;;;;;193.73;74.67;;;-3.80;99.90;;;;;;5028589;28;20099;-74
2022/12/17 21:20:59;;;;;;;187.00;71.33;;;-3.80;99.90;;;;;;5028614;28;20123;-75
2022/12/17 21:23:26;;;;;;;184.03;72.37;;;-3.80;99.90;;;;;;5031672;28;20437;-77
2022/12/17 21:26:02;;;;;;;205.37;81.73;;;-3.80;99.90;;;;;;5042374;28;20597;-74
2022/12/17 21:28:28;;;;;;;191.23;73.23;;;-3.80;99.90;;;;;;5024552;28;20124;-74
2022/12/17 21:30:54;;;;;;;190.80;72.73;;;-3.80;99.90;;;;;;5049665;28;20056;-76
2022/12/17 21:33:20;;;;;;;203.60;77.63;;;-3.70;99.90;;;;;;5042656;28;20041;-79
2022/12/17 21:35:46;;;;;;;206.13;81.40;;;-3.70;99.90;;;;;;5030962;28;20462;-76
2022/12/17 21:38:12;;;;;;;207.23;81.97;;;-3.70;99.90;;;;;;5024149;28;20083;-74
2022/12/17 21:40:37;;;;;;;204.10;79.03;;;-3.70;99.90;;;;;;5032564;28;20056;-74
2022/12/17 21:43:03;;;;;;;213.83;79.53;;;-3.70;99.90;;;;;;5039102;28;20045;-75
2022/12/17 21:45:37;;;;;;;193.40;73.67;;;-3.70;99.90;;;;;;5048759;28;20040;-74
2022/12/17 21:48:08;;;;;;;218.00;81.27;;;-3.70;99.90;;;;;;5031373;28;20090;-75
2022/12/17 21:50:38;;;;;;;220.13;83.70;;;-3.70;99.90;;;;;;5031783;28;20080;-76
2022/12/17 21:53:04;;;;;;;209.73;84.83;;;-3.70;99.90;;;;;;5048497;28;20048;-74
2022/12/17 21:55:29;;;;;;;217.27;84.73;;;-3.70;99.90;;;;;;5048883;28;20129;-75
2022/12/17 21:57:55;;;;;;;208.93;83.03;;;-3.80;99.90;;;;;;5032936;28;20053;-75
2022/12/17 22:00:21;;;;;;;209.63;86.00;;;-3.80;99.90;;;;;;5049380;28;20052;-79
2022/12/17 22:02:46;;;;;;;219.70;86.60;;;-3.80;99.90;;;;;;5048330;28;20499;-76
2022/12/17 22:05:12;;;;;;;215.43;78.27;;;-3.80;99.90;;;;;;5048730;28;20037;-75
2022/12/17 22:07:38;;;;;;;211.43;80.60;;;-3.80;99.90;;;;;;5033210;28;20071;-75
2022/12/17 22:10:04;;;;;;;200.77;74.00;;;-3.80;99.90;;;;;;5031279;28;20376;-75
2022/12/17 22:15:14;;;;;;;203.30;74.77;;;-3.80;99.90;;;;;;5049339;28;20442;-75
2022/12/17 22:17:40;;;;;;;245.03;92.63;;;-3.80;99.90;;;;;;5032406;28;20283;-77
2022/12/17 22:20:06;;;;;;;280.07;104.23;;;-3.80;99.90;;;;;;5048642;28;20087;-75
2022/12/17 22:22:32;;;;;;;247.17;96.87;;;-3.80;99.90;;;;;;5048453;28;20349;-75
2022/12/17 22:24:58;;;;;;;229.20;86.77;;;-3.80;99.90;;;;;;5047415;28;20453;-76
2022/12/17 22:27:23;;;;;;;240.13;86.27;;;-3.90;99.90;;;;;;5032864;28;20136;-75
2022/12/17 22:35:18;;;;;;;228.87;91.43;;;-3.80;99.90;;;;;;5049324;28;20290;-75
2022/12/17 22:37:44;;;;;;;236.80;88.93;;;-3.80;99.90;;;;;;5032022;28;20438;-75
2022/12/17 22:40:10;;;;;;;235.10;92.77;;;-3.80;99.90;;;;;;5048968;28;20505;-74
2022/12/17 22:45:20;;;;;;;231.83;85.07;;;-3.80;99.90;;;;;;5048033;28;20052;-75
2022/12/17 22:47:45;;;;;;;217.40;87.57;;;-3.80;99.90;;;;;;5012929;28;20045;-76
2022/12/17 22:50:11;;;;;;;217.53;82.40;;;-3.80;99.90;;;;;;5028952;28;20506;-77
2022/12/17 22:52:37;;;;;;;218.73;83.43;;;-3.90;99.90;;;;;;5029756;28;20049;-75
2022/12/17 22:55:03;;;;;;;221.23;84.57;;;-3.90;99.90;;;;;;5037597;28;20116;-75
2022/12/17 22:57:29;;;;;;;241.70;87.37;;;-3.90;99.90;;;;;;5031503;28;20048;-78
2022/12/17 22:59:55;;;;;;;238.67;84.17;;;-4.00;99.90;;;;;;5048107;28;20045;-76
2022/12/17 23:02:20;;;;;;;251.87;91.87;;;-4.00;99.90;;;;;;5046997;28;20049;-75
2022/12/17 23:04:46;;;;;;;240.87;84.93;;;-4.00;99.90;;;;;;5049142;28;20526;-74
2022/12/17 23:07:11;;;;;;;241.23;85.17;;;-4.00;99.90;;;;;;4999480;28;20407;-75
2022/12/17 23:09:37;;;;;;;223.63;84.00;;;-4.00;99.90;;;;;;5048636;28;20048;-75
2022/12/17 23:12:49;;;;;;;227.53;85.97;;;-4.00;99.90;;;;;;5047834;28;20088;-73
2022/12/17 23:14:49;;;;;;;217.43;83.27;;;-4.00;99.90;;;;;;5047885;28;20056;-79
2022/12/17 23:17:14;;;;;;;239.77;84.63;;;-4.00;99.90;;;;;;5033793;28;20037;-75
2022/12/17 23:19:40;;;;;;;224.50;80.83;;;-4.00;99.90;;;;;;5048503;28;20110;-75
2022/12/17 23:22:06;;;;;;;226.60;81.73;;;-4.00;99.90;;;;;;5048185;28;20530;-75
2022/12/17 23:24:31;;;;;;;248.10;87.17;;;-4.10;99.90;;;;;;5031126;28;20060;-75
2022/12/17 23:26:57;;;;;;;226.33;76.53;;;-4.10;99.90;;;;;;5033082;28;20115;-74
2022/12/17 23:29:23;;;;;;;234.80;78.70;;;-4.00;99.90;;;;;;5047849;28;20051;-78
2022/12/17 23:31:48;;;;;;;237.33;91.60;;;-4.00;99.90;;;;;;5050527;28;20055;-75
2022/12/17 23:34:14;;;;;;;243.67;86.57;;;-4.00;99.90;;;;;;5050505;28;20160;-76
2022/12/17 23:36:40;;;;;;;248.43;89.20;;;-4.00;99.90;;;;;;5038443;28;20497;-75
2022/12/17 23:39:06;;;;;;;244.97;81.80;;;-3.90;99.90;;;;;;5049125;28;20049;-75
2022/12/17 23:41:32;;;;;;;253.30;88.97;;;-4.00;99.90;;;;;;5052574;28;20045;-74
2022/12/17 23:43:58;;;;;;;243.60;84.90;;;-4.00;99.90;;;;;;5049854;28;20056;-75
2022/12/17 23:46:26;;;;;;;249.23;86.60;;;-4.00;99.90;;;;;;5040196;28;20045;-75
2022/12/17 23:48:52;;;;;;;244.20;89.73;;;-3.90;99.90;;;;;;5048317;28;20045;-75
2022/12/17 23:51:19;;;;;;;243.70;80.47;;;-3.90;99.90;;;;;;5051325;28;20114;-75
2022/12/17 23:53:45;;;;;;;273.70;89.67;;;-3.90;99.90;;;;;;5051304;28;20422;-74
2022/12/17 23:56:13;;;;;;;260.53;88.10;;;-3.90;99.90;;;;;;5050200;28;20060;-75
2022/12/17 23:58:41;;;;;;;253.83;86.60;;;-3.30;99.90;;;;;;5038739;28;20049;-75
